Shields, Kansas
Current Conditions -  °F | °C
As of 1:54 PM on Monday 24 Nov 2014 (Local Time) from KGCK Reporting Station
Scattered Clouds Scattered Clouds  
Wind Chill: 50°   Ceiling: Unl
Heat Index: 50°   Visibility: 10mi
Dew Point: 12°   Wind: 15mph
Humidity: 22%   Direction: 290°WNW
Pressure: 29.94"   Gusts: NA
Location:  38.4812°N, 100.393°W
Report Text: KGCK 241954Z 29013KT 10SM FEW080 SCT100 10/M11 A2994 RMK AO2 SLP144 T01001111
Loading
Personal Weather Stations






























Interactive Weather Map New forecast layout! Learn more

10-Day Weather Forecast

Advertisements
Track Severe Weather on mobile